Time;durP1;ratioP1;P1;durP2;ratioP2;P2;SDS_P1;SDS_P2;PMS_P1;PMS_P2;Temp;Humidity;BMP_temperature;BMP_pressure;BME280_temperature;BME280_humidity;BME280_pressure;Samples;Min_cycle;Max_cycle;Signal;HPM_P1;HPM_P2
2022/05/08 00:00:00;;;;;;;14.80;13.35;;;;;;;;;;5009967;28;20173;-73
2022/05/08 00:02:28;;;;;;;17.30;14.05;;;;;;;;;;5005814;28;20049;-73
2022/05/08 00:04:57;;;;;;;17.33;14.45;;;;;;;;;;5009948;28;20496;-73
2022/05/08 00:07:27;;;;;;;16.05;14.23;;;;;;;;;;5009674;28;20045;-74
2022/05/08 00:09:55;;;;;;;15.93;14.27;;;;;;;;;;5010361;28;20086;-73
2022/05/08 00:12:24;;;;;;;16.92;13.88;;;;;;;;;;5009933;28;20046;-73
2022/05/08 00:14:52;;;;;;;17.98;14.02;;;;;;;;;;5010807;28;20069;-74
2022/05/08 00:17:20;;;;;;;18.42;12.38;;;;;;;;;;5010257;28;20124;-74
2022/05/08 00:19:48;;;;;;;18.02;13.40;;;;;;;;;;5010670;28;20046;-73
2022/05/08 00:22:16;;;;;;;14.30;12.80;;;;;;;;;;5010313;28;20084;-73
2022/05/08 00:25:02;;;;;;;18.77;12.32;;;;;;;;;;5010654;28;20045;-72
2022/05/08 00:27:30;;;;;;;17.50;12.52;;;;;;;;;;5010393;28;20102;-73
2022/05/08 00:29:58;;;;;;;19.98;13.80;;;;;;;;;;5010935;28;20132;-73
2022/05/08 00:32:27;;;;;;;16.90;13.25;;;;;;;;;;5010173;28;20045;-73
2022/05/08 00:34:55;;;;;;;15.80;12.45;;;;;;;;;;5010179;28;20133;-74
2022/05/08 00:37:23;;;;;;;15.60;13.95;;;;;;;;;;5011213;28;20455;-74
2022/05/08 00:39:51;;;;;;;14.30;12.80;;;;;;;;;;5010509;28;20050;-74
2022/05/08 00:42:20;;;;;;;18.58;13.07;;;;;;;;;;5010483;28;20393;-73
2022/05/08 00:44:48;;;;;;;17.00;12.90;;;;;;;;;;5009928;28;20074;-73
2022/05/08 00:47:16;;;;;;;16.25;14.55;;;;;;;;;;5010184;28;20421;-73
2022/05/08 00:49:44;;;;;;;14.27;12.88;;;;;;;;;;5011870;28;20054;-74
2022/05/08 00:52:15;;;;;;;14.48;12.73;;;;;;;;;;5013811;28;20046;-74
2022/05/08 00:54:43;;;;;;;14.10;12.70;;;;;;;;;;5012327;28;20050;-75
2022/05/08 00:57:11;;;;;;;13.75;12.35;;;;;;;;;;5012527;28;20060;-75
2022/05/08 00:59:39;;;;;;;17.80;12.27;;;;;;;;;;5013629;28;20056;-74
2022/05/08 01:02:07;;;;;;;14.57;12.90;;;;;;;;;;5013341;28;20078;-74
2022/05/08 01:04:35;;;;;;;14.32;11.70;;;;;;;;;;5013767;28;20060;-74
2022/05/08 01:07:05;;;;;;;14.27;12.82;;;;;;;;;;5013008;28;20069;-74
2022/05/08 01:09:33;;;;;;;13.98;12.45;;;;;;;;;;5013696;28;20046;-74
2022/05/08 01:12:01;;;;;;;13.88;12.27;;;;;;;;;;5013109;28;20046;-74
2022/05/08 01:14:30;;;;;;;15.25;12.13;;;;;;;;;;5013393;28;20046;-74
2022/05/08 01:16:59;;;;;;;15.50;11.13;;;;;;;;;;5013305;28;20453;-75
2022/05/08 01:19:26;;;;;;;12.00;10.80;;;;;;;;;;5080571;28;20054;-75
2022/05/08 01:21:55;;;;;;;13.50;11.85;;;;;;;;;;5013642;28;20057;-75
2022/05/08 01:24:24;;;;;;;11.85;10.75;;;;;;;;;;5012865;28;20078;-75
2022/05/08 01:26:51;;;;;;;15.55;12.30;;;;;;;;;;5013306;28;20133;-75
2022/05/08 01:29:20;;;;;;;13.82;12.30;;;;;;;;;;5012665;28;20128;-75
2022/05/08 01:31:49;;;;;;;14.77;12.15;;;;;;;;;;5013294;28;20386;-75
2022/05/08 01:34:18;;;;;;;12.70;11.48;;;;;;;;;;5012748;28;20046;-76
2022/05/08 01:36:47;;;;;;;15.02;11.32;;;;;;;;;;5013141;28;20069;-75
2022/05/08 01:39:16;;;;;;;13.90;11.68;;;;;;;;;;5012812;28;20389;-75
2022/05/08 01:41:45;;;;;;;14.07;11.85;;;;;;;;;;5012917;28;20461;-75
2022/05/08 01:44:16;;;;;;;20.33;12.48;;;;;;;;;;5012959;28;20133;-76
2022/05/08 01:46:45;;;;;;;13.80;12.40;;;;;;;;;;5012768;28;20053;-76
2022/05/08 01:49:13;;;;;;;13.10;11.35;;;;;;;;;;5013348;28;20099;-76
2022/05/08 01:51:41;;;;;;;13.95;12.52;;;;;;;;;;5012766;28;20205;-77
2022/05/08 01:54:11;;;;;;;12.63;11.32;;;;;;;;;;5013164;28;20132;-77
2022/05/08 01:56:38;;;;;;;11.85;10.00;;;;;;;;;;5012153;28;20065;-77
2022/05/08 01:59:08;;;;;;;10.38;9.38;;;;;;;;;;5013020;28;20133;-77
2022/05/08 02:01:35;;;;;;;17.23;10.43;;;;;;;;;;5079951;28;20450;-77
2022/05/08 02:04:05;;;;;;;11.05;9.95;;;;;;;;;;5012693;28;20081;-77
2022/05/08 02:06:33;;;;;;;13.20;10.00;;;;;;;;;;5012774;28;20050;-77
2022/05/08 02:09:02;;;;;;;17.52;12.02;;;;;;;;;;5012934;28;20054;-79
2022/05/08 02:11:31;;;;;;;12.32;9.98;;;;;;;;;;5012433;28;20396;-73
2022/05/08 02:14:01;;;;;;;18.70;10.18;;;;;;;;;;5012502;28;20095;-73
2022/05/08 02:16:30;;;;;;;11.93;10.70;;;;;;;;;;5012379;28;20458;-72
2022/05/08 02:18:58;;;;;;;13.45;11.02;;;;;;;;;;5080214;28;20053;-73
2022/05/08 02:21:27;;;;;;;11.35;10.15;;;;;;;;;;5012591;28;20054;-72
2022/05/08 02:23:54;;;;;;;16.80;11.13;;;;;;;;;;5011702;28;20085;-72
2022/05/08 02:26:22;;;;;;;10.95;9.63;;;;;;;;;;5012555;28;20077;-73
2022/05/08 02:28:51;;;;;;;13.70;11.15;;;;;;;;;;5012514;28;20050;-73
2022/05/08 02:31:20;;;;;;;15.50;10.63;;;;;;;;;;5011829;28;20050;-73
2022/05/08 02:33:48;;;;;;;11.32;9.85;;;;;;;;;;5012047;28;20057;-74
2022/05/08 02:36:16;;;;;;;15.20;11.23;;;;;;;;;;5011874;28;20064;-78
2022/05/08 02:38:45;;;;;;;13.05;11.68;;;;;;;;;;5012590;28;20106;-77
2022/05/08 02:41:14;;;;;;;16.15;11.75;;;;;;;;;;5011735;28;20527;-77
2022/05/08 02:43:43;;;;;;;13.10;11.90;;;;;;;;;;5012193;28;20129;-77
2022/05/08 02:46:13;;;;;;;13.30;11.98;;;;;;;;;;5011621;28;20408;-76
2022/05/08 02:48:43;;;;;;;15.73;13.82;;;;;;;;;;5012079;28;20100;-77
2022/05/08 02:51:11;;;;;;;17.98;14.70;;;;;;;;;;5011759;28;20503;-76
2022/05/08 02:53:39;;;;;;;14.80;12.93;;;;;;;;;;5011964;28;20042;-76
2022/05/08 02:58:53;;;;;;;14.32;12.27;;;;;;;;;;5011955;28;20056;-77
2022/05/08 03:01:22;;;;;;;13.88;12.55;;;;;;;;;;5011571;28;20087;-75
2022/05/08 03:03:49;;;;;;;16.90;13.48;;;;;;;;;;5011517;28;20057;-74
2022/05/08 03:06:17;;;;;;;17.52;13.52;;;;;;;;;;5012065;28;20144;-74
2022/05/08 03:08:45;;;;;;;15.20;11.68;;;;;;;;;;5011467;28;20091;-75
2022/05/08 03:11:25;;;;;;;16.95;13.00;;;;;;;;;;5012082;28;20408;-74
2022/05/08 03:13:59;;;;;;;16.08;12.40;;;;;;;;;;5010143;28;20064;-74
2022/05/08 03:16:28;;;;;;;14.02;12.30;;;;;;;;;;5011810;28;20057;-74
2022/05/08 03:18:57;;;;;;;12.57;9.82;;;;;;;;;;5011608;28;20046;-74
2022/05/08 03:21:25;;;;;;;11.77;10.60;;;;;;;;;;5011871;28;20041;-74
2022/05/08 03:23:53;;;;;;;12.30;10.20;;;;;;;;;;5011268;28;20065;-70
2022/05/08 03:26:21;;;;;;;12.35;10.85;;;;;;;;;;5010932;28;20049;-71
2022/05/08 03:28:51;;;;;;;13.90;9.95;;;;;;;;;;5011438;28;20057;-72
2022/05/08 03:31:21;;;;;;;11.88;10.68;;;;;;;;;;5011178;28;20174;-72
2022/05/08 03:33:49;;;;;;;15.93;10.07;;;;;;;;;;5011190;28;20054;-71
2022/05/08 03:36:17;;;;;;;11.57;10.35;;;;;;;;;;5010738;28;20057;-71
2022/05/08 03:38:47;;;;;;;10.60;9.60;;;;;;;;;;5011037;28;20398;-70
2022/05/08 03:41:15;;;;;;;10.68;9.48;;;;;;;;;;5010792;28;20042;-72
2022/05/08 03:43:46;;;;;;;14.38;10.73;;;;;;;;;;5011109;28;20118;-72
2022/05/08 03:46:15;;;;;;;13.13;10.82;;;;;;;;;;5011327;28;20077;-72
2022/05/08 03:48:44;;;;;;;11.02;9.93;;;;;;;;;;5010866;28;20073;-72
2022/05/08 03:51:12;;;;;;;14.48;10.93;;;;;;;;;;5011248;28;20042;-71
2022/05/08 03:53:41;;;;;;;10.90;9.90;;;;;;;;;;5010343;28;20104;-71
2022/05/08 03:56:09;;;;;;;12.15;10.35;;;;;;;;;;5011066;28;20091;-72
2022/05/08 03:58:40;;;;;;;11.05;10.02;;;;;;;;;;5010657;28;20068;-70
2022/05/08 04:01:09;;;;;;;10.63;9.52;;;;;;;;;;5011232;28;20129;-71
2022/05/08 04:03:36;;;;;;;10.48;9.48;;;;;;;;;;5010875;28;20042;-71
2022/05/08 04:06:04;;;;;;;12.70;11.15;;;;;;;;;;5011285;28;20125;-72
2022/05/08 04:08:33;;;;;;;11.70;9.95;;;;;;;;;;5010544;28;20512;-73
2022/05/08 04:11:02;;;;;;;12.68;10.18;;;;;;;;;;5010695;28;20046;-74
2022/05/08 04:13:30;;;;;;;10.63;9.60;;;;;;;;;;5010734;28;20038;-70
2022/05/08 04:16:17;;;;;;;10.80;9.57;;;;;;;;;;5009389;28;20065;-69
2022/05/08 04:18:46;;;;;;;9.95;8.95;;;;;;;;;;5010462;28;20576;-69
2022/05/08 04:21:15;;;;;;;14.30;11.32;;;;;;;;;;5010130;28;20102;-70
2022/05/08 04:26:30;;;;;;;13.10;10.70;;;;;;;;;;5013481;28;20420;-68
2022/05/08 04:28:58;;;;;;;12.40;10.82;;;;;;;;;;5014126;28;20046;-70
2022/05/08 04:31:27;;;;;;;12.82;10.85;;;;;;;;;;5014060;28;20057;-68
2022/05/08 04:33:56;;;;;;;12.00;10.80;;;;;;;;;;5013613;28;20042;-69
2022/05/08 04:36:24;;;;;;;10.63;9.60;;;;;;;;;;5014123;28;20056;-67
2022/05/08 04:38:53;;;;;;;12.15;10.77;;;;;;;;;;5013698;28;20073;-69
2022/05/08 04:41:21;;;;;;;11.82;10.38;;;;;;;;;;5013827;28;20054;-69
2022/05/08 04:43:51;;;;;;;14.38;10.93;;;;;;;;;;5013528;28;20060;-69
2022/05/08 04:46:21;;;;;;;12.13;10.93;;;;;;;;;;5013358;28;20077;-68
2022/05/08 04:48:50;;;;;;;11.98;10.25;;;;;;;;;;5013626;28;20183;-69
2022/05/08 04:51:19;;;;;;;18.80;10.38;;;;;;;;;;5013872;28;20572;-69
2022/05/08 04:53:48;;;;;;;11.25;9.38;;;;;;;;;;5080619;28;20409;-69
2022/05/08 04:56:19;;;;;;;14.82;10.25;;;;;;;;;;5013284;28;20064;-69
2022/05/08 04:58:47;;;;;;;11.07;9.95;;;;;;;;;;5009186;28;20049;-68
2022/05/08 05:01:17;;;;;;;13.48;10.93;;;;;;;;;;5013130;28;20091;-69
2022/05/08 05:03:45;;;;;;;12.05;10.38;;;;;;;;;;5011823;28;20054;-70
2022/05/08 05:06:14;;;;;;;13.52;11.18;;;;;;;;;;5009849;28;20054;-70
2022/05/08 05:08:42;;;;;;;14.20;9.48;;;;;;;;;;5009047;28;20091;-70
2022/05/08 05:11:10;;;;;;;12.20;10.00;;;;;;;;;;5012227;28;20107;-70
2022/05/08 05:13:40;;;;;;;12.20;9.85;;;;;;;;;;5012565;28;20049;-70
2022/05/08 05:16:08;;;;;;;12.05;9.25;;;;;;;;;;5012565;28;20496;-69
2022/05/08 05:18:36;;;;;;;14.30;9.57;;;;;;;;;;5012863;28;20066;-69
2022/05/08 05:21:04;;;;;;;9.50;8.35;;;;;;;;;;5012952;28;20050;-70
2022/05/08 05:23:35;;;;;;;11.50;8.48;;;;;;;;;;5012268;28;20562;-69
2022/05/08 05:26:03;;;;;;;13.57;9.77;;;;;;;;;;5012504;28;20442;-69
2022/05/08 05:28:33;;;;;;;9.00;8.10;;;;;;;;;;5012519;28;20086;-69
2022/05/08 05:31:01;;;;;;;9.73;8.75;;;;;;;;;;5012687;28;20048;-69
2022/05/08 05:33:30;;;;;;;10.45;7.57;;;;;;;;;;5012373;28;20053;-69
2022/05/08 05:36:00;;;;;;;14.10;7.25;;;;;;;;;;5011744;28;20073;-68
2022/05/08 05:38:28;;;;;;;8.40;7.63;;;;;;;;;;5012380;28;20046;-68
2022/05/08 05:41:01;;;;;;;8.87;7.97;;;;;;;;;;5012710;28;20037;-69
2022/05/08 05:43:29;;;;;;;12.48;7.78;;;;;;;;;;5012409;28;20311;-68
2022/05/08 05:48:45;;;;;;;15.65;8.38;;;;;;;;;;5012301;28;20121;-70
2022/05/08 05:51:13;;;;;;;10.20;7.93;;;;;;;;;;5012320;28;20061;-70
2022/05/08 05:53:42;;;;;;;9.20;8.23;;;;;;;;;;5080570;28;20400;-68
2022/05/08 05:56:10;;;;;;;9.95;8.05;;;;;;;;;;5012044;28;20492;-68
2022/05/08 05:58:38;;;;;;;12.40;8.52;;;;;;;;;;5080008;28;20093;-69
2022/05/08 06:01:06;;;;;;;8.20;7.45;;;;;;;;;;5011547;28;20065;-67
2022/05/08 06:03:34;;;;;;;11.45;8.75;;;;;;;;;;5012581;28;20042;-67
2022/05/08 06:06:03;;;;;;;10.13;8.98;;;;;;;;;;5012277;28;20049;-66
2022/05/08 06:08:30;;;;;;;14.70;9.35;;;;;;;;;;5012541;28;20415;-67
2022/05/08 06:10:58;;;;;;;19.10;8.52;;;;;;;;;;5080420;28;20409;-66
2022/05/08 06:13:26;;;;;;;10.88;9.50;;;;;;;;;;5012591;28;20132;-67
2022/05/08 06:15:54;;;;;;;14.18;10.88;;;;;;;;;;5012522;28;20050;-66
2022/05/08 06:18:22;;;;;;;15.43;9.73;;;;;;;;;;5011805;28;20496;-66
2022/05/08 06:20:50;;;;;;;12.45;10.30;;;;;;;;;;5010928;28;20052;-67
2022/05/08 06:23:17;;;;;;;10.88;9.77;;;;;;;;;;5011463;28;20042;-66
2022/05/08 06:25:48;;;;;;;15.80;10.35;;;;;;;;;;5012858;28;20061;-66
2022/05/08 06:28:20;;;;;;;11.77;10.60;;;;;;;;;;5012132;28;20073;-66
2022/05/08 06:30:49;;;;;;;11.90;10.60;;;;;;;;;;5011910;28;20081;-65
2022/05/08 06:33:18;;;;;;;12.27;10.25;;;;;;;;;;5011925;28;20106;-65
2022/05/08 06:35:47;;;;;;;14.32;11.13;;;;;;;;;;5011690;28;20077;-65
2022/05/08 06:38:16;;;;;;;14.05;12.73;;;;;;;;;;5011654;28;20042;-65
2022/05/08 06:40:45;;;;;;;16.67;10.93;;;;;;;;;;5011010;28;20076;-68
2022/05/08 06:43:17;;;;;;;13.50;10.90;;;;;;;;;;5011669;28;20046;-67
2022/05/08 06:45:46;;;;;;;11.80;10.23;;;;;;;;;;5011253;28;20087;-67
2022/05/08 06:48:16;;;;;;;11.57;10.27;;;;;;;;;;5011616;28;20041;-67
2022/05/08 06:50:45;;;;;;;12.43;11.18;;;;;;;;;;5010976;28;20129;-67
2022/05/08 06:53:13;;;;;;;13.07;9.50;;;;;;;;;;5011635;28;20050;-67
2022/05/08 06:55:43;;;;;;;15.32;9.90;;;;;;;;;;5010673;28;20037;-67
2022/05/08 21:21:59;;;;;;;15.18;13.68;;;;;;;;;;5069240;28;20416;-65
2022/05/08 21:24:27;;;;;;;18.08;13.85;;;;;;;;;;5050358;28;20389;-65
2022/05/08 21:26:56;;;;;;;21.33;14.93;;;;;;;;;;5050343;28;20056;-65
2022/05/08 21:29:25;;;;;;;16.90;13.38;;;;;;;;;;5050686;28;20413;-66
2022/05/08 21:31:55;;;;;;;17.58;14.05;;;;;;;;;;5043863;28;20091;-66
2022/05/08 21:34:25;;;;;;;17.73;15.90;;;;;;;;;;5010278;28;20054;-66
2022/05/08 21:36:53;;;;;;;17.25;14.00;;;;;;;;;;5009882;28;20057;-65
2022/05/08 21:39:25;;;;;;;14.93;13.43;;;;;;;;;;5010740;28;20398;-66
2022/05/08 21:41:56;;;;;;;16.70;14.98;;;;;;;;;;5010304;28;20394;-66
2022/05/08 21:44:27;;;;;;;17.83;13.45;;;;;;;;;;5010863;28;20551;-66
2022/05/08 21:47:00;;;;;;;15.48;12.75;;;;;;;;;;5010319;28;20049;-66
2022/05/08 21:49:31;;;;;;;11.18;10.07;;;;;;;;;;5010460;28;20112;-66
2022/05/08 21:52:04;;;;;;;11.32;9.40;;;;;;;;;;5011537;28;20061;-66
2022/05/08 21:54:33;;;;;;;14.77;10.52;;;;;;;;;;5009875;28;20493;-66
2022/05/08 21:57:06;;;;;;;12.57;11.23;;;;;;;;;;5010063;28;20045;-65
2022/05/08 21:59:35;;;;;;;17.50;12.23;;;;;;;;;;5010120;28;20061;-66
2022/05/08 22:02:05;;;;;;;11.88;10.32;;;;;;;;;;5006098;28;20046;-67
2022/05/08 22:04:40;;;;;;;15.00;11.38;;;;;;;;;;5009365;28;20460;-65
2022/05/08 22:07:11;;;;;;;13.52;10.35;;;;;;;;;;5008344;28;20050;-65
2022/05/08 22:09:41;;;;;;;13.45;10.07;;;;;;;;;;5008893;28;20050;-65
2022/05/08 22:12:10;;;;;;;12.65;10.48;;;;;;;;;;5009751;28;20057;-65
2022/05/08 22:14:41;;;;;;;10.63;9.10;;;;;;;;;;5009631;28;20046;-65
2022/05/08 22:17:11;;;;;;;12.95;8.75;;;;;;;;;;5009868;28;20420;-65
2022/05/08 22:19:41;;;;;;;12.40;9.27;;;;;;;;;;5009204;28;20513;-66
2022/05/08 22:22:12;;;;;;;13.80;11.45;;;;;;;;;;5009423;28;20046;-65
2022/05/08 22:24:44;;;;;;;16.55;12.10;;;;;;;;;;5009657;28;20057;-65
2022/05/08 22:27:17;;;;;;;;;;;;;;;;;;5009639;28;20608;-65
2022/05/08 22:29:48;;;;;;;16.67;12.10;;;;;;;;;;5009499;28;19972;-65
2022/05/08 22:32:18;;;;;;;13.10;11.25;;;;;;;;;;5001812;28;20494;-65
2022/05/08 22:34:47;;;;;;;13.25;11.95;;;;;;;;;;4996448;28;20050;-65
2022/05/08 22:37:18;;;;;;;12.43;11.10;;;;;;;;;;4987171;28;20061;-65
2022/05/08 22:39:50;;;;;;;11.88;10.65;;;;;;;;;;4996362;28;20092;-65
2022/05/08 22:42:20;;;;;;;14.48;12.95;;;;;;;;;;4996061;28;20433;-65
2022/05/08 22:44:51;;;;;;;16.25;13.73;;;;;;;;;;4995764;28;20051;-66
2022/05/08 22:47:25;;;;;;;20.75;13.05;;;;;;;;;;4996366;28;20042;-66
2022/05/08 22:49:56;;;;;;;16.20;14.35;;;;;;;;;;4994399;28;20414;-66
2022/05/08 22:52:27;;;;;;;18.95;13.40;;;;;;;;;;4996169;28;20133;-66
2022/05/08 22:54:57;;;;;;;15.98;13.63;;;;;;;;;;4995645;28;20137;-66
2022/05/08 22:57:26;;;;;;;20.75;12.80;;;;;;;;;;4996015;28;20046;-66
2022/05/08 22:59:56;;;;;;;17.52;12.10;;;;;;;;;;4995564;28;20054;-66
2022/05/08 23:02:27;;;;;;;13.65;11.55;;;;;;;;;;4996400;28;20396;-66
2022/05/08 23:04:57;;;;;;;15.80;11.30;;;;;;;;;;4996091;28;20406;-69
2022/05/08 23:07:28;;;;;;;14.80;11.13;;;;;;;;;;4995737;28;20053;-65
2022/05/08 23:10:00;;;;;;;15.80;11.85;;;;;;;;;;4994769;28;20049;-65
2022/05/08 23:12:31;;;;;;;14.57;11.70;;;;;;;;;;4995302;28;20046;-65
2022/05/08 23:17:52;;;;;;;14.48;10.15;;;;;;;;;;4995063;28;20536;-65
2022/05/08 23:20:24;;;;;;;12.90;10.13;;;;;;;;;;4995481;28;20061;-65
2022/05/08 23:22:53;;;;;;;46.00;11.63;;;;;;;;;;4995570;28;20157;-66
2022/05/08 23:25:28;;;;;;;13.55;9.63;;;;;;;;;;4996023;28;20053;-66
2022/05/08 23:27:56;;;;;;;12.27;8.73;;;;;;;;;;4995808;28;20050;-65
2022/05/08 23:30:28;;;;;;;14.35;11.00;;;;;;;;;;4995846;28;20101;-66
2022/05/08 23:32:57;;;;;;;12.73;10.38;;;;;;;;;;5010846;28;20074;-66
2022/05/08 23:35:24;;;;;;;12.13;10.40;;;;;;;;;;4995503;28;20060;-66
2022/05/08 23:37:53;;;;;;;14.45;10.15;;;;;;;;;;4994596;28;20046;-66
2022/05/08 23:40:23;;;;;;;14.05;9.43;;;;;;;;;;4995338;28;20080;-68
2022/05/08 23:42:52;;;;;;;17.30;11.43;;;;;;;;;;4995626;28;20046;-66
2022/05/08 23:45:22;;;;;;;16.20;10.25;;;;;;;;;;5009788;28;20058;-65
2022/05/08 23:47:51;;;;;;;12.75;10.13;;;;;;;;;;4995503;28;20484;-66
2022/05/08 23:50:21;;;;;;;13.98;11.38;;;;;;;;;;4995234;28;20053;-66
2022/05/08 23:52:51;;;;;;;12.48;8.73;;;;;;;;;;4995346;28;20054;-66
2022/05/08 23:55:22;;;;;;;10.48;8.20;;;;;;;;;;4995300;28;20101;-66
2022/05/08 23:57:52;;;;;;;9.68;8.43;;;;;;;;;;4995348;28;20049;-65
